Aeroporto :
LOGIN :

Iscrizione | Disclaimer

   EN    FR    IT 

 










Sommario :    VFR   VFR Marginale   IFR   IFR Intensivo   IFR Molto Intensivo
Visibilità : 
Base nubi : 
>= 8 km
>= 3000ft
5 / 8 km
1000 / 3000 ft
1500m / 5 km
500 / 1000 ft
800 / 1500m
200 / 500 ft
< 800m
< 200 ft
Simboli :   Temporali  Nebbia  Neve Forte  Precipitazioni Forti  Vento > 20 kt
SIGMETs :   Varie  Temporali  Ghiacco  Turbolenza  Onda orograficha  Ceneri Vulcaniche







- Altitudine del aeroporto : 220 ft
- Codice IATA : CWL
- Carte del aeroporto


EGFF - Cardiff Rhoose

ULTIMO METAR :
  • 200050Z AUTO 28007KT 9999 FEW015 12/11 Q1011

METARs OBSOLETI :
  • 200020Z AUTO 28009KT 9999 NCD 12/11 Q1011
  • 192350Z AUTO 28009KT 9999 BKN012 12/11 Q1011
  • 192320Z AUTO 29009KT 9999 SCT013 12/11 Q1011
  • 192250Z AUTO 28010KT 9999 FEW012 12/11 Q1011
  • 192220Z AUTO 28012KT 9999 NCD 12/11 Q1011

TAF TAF EGFF
Valido dal 20 a 00 ore il 21 a 00 ore UTC


192255Z 2000/2024 26012KT 9999 FEW015
PROB30
TEMPO 2000/2008 BKN014
TEMPO 2008/2016 7000 SHRA
PROB30
TEMPO 2009/2015 27015G25KT
ATIS : +44 1446 729 319
Nessun NOTAM noto per questo aeroporto.



MetMap, La meteo Aeronautica in un colpo d'occhio ! - Copyright ORBIFLY Dicembre 2007 - Disclaimer

ORBIFLY MET'MAP TEAM :

Programmazione e sviluppo : Alexandra Zaïnal
Concezione e sviluppo : Baudouin d'Aumeries
Co-Programmazione e sviluppo : Marc-Olivier Méhu
Supporto tecnico e logistico : Manuel Goepfert
Aiuto per la traduzione : Arnaldo La Scala

Contatto : metmap@orbifly.com




FONTI E CREDITI :

   NOAA